Terminal Aerodrome Forecast
Issued by NWS

Home | Current Version | Previous Version | Text Only | Print | Product List | Glossary On
Versions: 1 2 3 4 5 6 7 8 9 10 11 12 13 14 15 16 17 18 19 20 21 22 23 24 25 26 27 28 29 30 31 32 33 34 35 36 37 38 39 40 41 42 43 44 45 46 47 48 49 50
379
FTUS43 KLSX 250520
TAFUIN
TAF
KUIN 250520Z 2506/2606 VRB03KT 1SM BR OVC005
      TEMPO 2509/2513 1/2SM FG OVC003
     FM251600 30005KT P6SM BKN015
     FM252100 33008KT P6SM VCSH SCT050
     FM252300 34011G17KT P6SM VCSH BKN030
     FM260400 34010KT P6SM FEW100=

USA.gov is the U.S. government's official web portal to all federal, state and local government web resources and services.